Time;durP1;ratioP1;P1;durP2;ratioP2;P2;SDS_P1;SDS_P2;PMS_P1;PMS_P2;Temp;Humidity;BMP_temperature;BMP_pressure;BME280_temperature;BME280_humidity;BME280_pressure;Samples;Min_cycle;Max_cycle;Signal;HPM_P1;HPM_P2
2024/02/07 00:00:08;;;;;;;88.18;13.45;;;8.30;99.90;;;;;;5068315;28;20029;-50
2024/02/07 00:02:34;;;;;;;86.45;14.10;;;8.30;99.90;;;;;;5069490;28;20040;-50
2024/02/07 00:05:00;;;;;;;74.15;13.95;;;8.30;99.90;;;;;;5068058;28;20100;-50
2024/02/07 00:07:25;;;;;;;91.38;13.77;;;8.30;99.90;;;;;;5069354;28;20025;-50
2024/02/07 00:09:51;;;;;;;105.50;14.20;;;8.30;99.90;;;;;;5069326;28;20101;-50
2024/02/07 00:12:17;;;;;;;87.22;12.60;;;8.30;99.90;;;;;;5069256;28;20070;-50
2024/02/07 00:14:43;;;;;;;62.58;11.73;;;8.30;99.90;;;;;;5068201;28;20045;-50
2024/02/07 00:17:09;;;;;;;82.72;14.00;;;8.30;99.90;;;;;;5068345;28;20036;-50
2024/02/07 00:19:34;;;;;;;70.75;13.23;;;8.20;99.90;;;;;;5068512;28;20025;-50
2024/02/07 00:22:00;;;;;;;75.47;12.52;;;8.20;99.90;;;;;;5068139;28;20036;-50
2024/02/07 00:24:26;;;;;;;82.18;11.98;;;8.20;99.90;;;;;;5069079;28;20029;-49
2024/02/07 00:26:52;;;;;;;77.38;12.77;;;8.20;99.90;;;;;;5067755;28;20036;-50
2024/02/07 00:29:17;;;;;;;74.45;12.52;;;8.20;99.90;;;;;;5067744;28;20031;-50
2024/02/07 00:31:43;;;;;;;70.28;11.60;;;8.20;99.90;;;;;;5069049;28;20025;-50
2024/02/07 00:34:08;;;;;;;67.28;10.80;;;8.20;99.90;;;;;;5069053;28;20033;-50
2024/02/07 00:36:34;;;;;;;80.15;12.25;;;8.20;99.90;;;;;;5068757;28;20489;-50
2024/02/07 00:39:00;;;;;;;69.32;12.32;;;8.20;99.90;;;;;;5067646;28;20036;-50
2024/02/07 00:41:26;;;;;;;76.32;11.80;;;8.10;99.90;;;;;;5067622;28;20040;-50
2024/02/07 00:43:54;;;;;;;78.20;11.85;;;8.10;99.90;;;;;;5067337;28;20036;-50
2024/02/07 00:46:20;;;;;;;62.90;10.68;;;8.10;99.90;;;;;;5049890;28;20481;-50
2024/02/07 00:48:45;;;;;;;50.95;10.25;;;8.10;99.90;;;;;;5068771;28;20044;-50
2024/02/07 00:51:11;;;;;;;67.35;11.70;;;8.10;99.90;;;;;;5050793;28;20501;-50
2024/02/07 00:53:37;;;;;;;69.03;10.82;;;8.10;99.90;;;;;;5067268;28;20036;-50
2024/02/07 00:56:02;;;;;;;57.80;11.05;;;8.00;99.90;;;;;;5068578;28;20033;-50
2024/02/07 00:58:28;;;;;;;62.47;11.05;;;8.00;99.90;;;;;;5068464;28;20373;-50
2024/02/07 01:00:54;;;;;;;73.40;10.77;;;8.00;99.90;;;;;;5050617;28;20037;-49
2024/02/07 01:03:20;;;;;;;60.78;10.10;;;8.00;99.90;;;;;;5050604;28;20033;-49
2024/02/07 01:05:46;;;;;;;61.88;11.32;;;8.00;99.90;;;;;;5068174;28;20059;-49
2024/02/07 01:08:12;;;;;;;53.88;10.77;;;8.00;99.90;;;;;;5066979;28;20025;-49
2024/02/07 01:10:38;;;;;;;64.68;10.27;;;7.90;99.90;;;;;;5068290;28;20454;-50
2024/02/07 01:13:04;;;;;;;55.75;10.43;;;7.90;99.90;;;;;;5050583;28;20084;-50
2024/02/07 01:15:30;;;;;;;49.53;9.07;;;7.90;99.90;;;;;;5068978;28;20059;-50
2024/02/07 01:17:55;;;;;;;54.47;9.52;;;7.90;99.90;;;;;;5084935;28;20025;-50
2024/02/07 01:20:21;;;;;;;49.25;9.95;;;7.90;99.90;;;;;;5087830;28;20044;-50
2024/02/07 01:22:46;;;;;;;49.92;9.32;;;7.90;99.90;;;;;;5087432;28;20082;-50
2024/02/07 01:25:12;;;;;;;56.22;9.90;;;7.90;99.90;;;;;;5086639;28;20112;-50
2024/02/07 01:27:39;;;;;;;53.33;10.18;;;7.80;99.90;;;;;;5086748;28;20099;-50
2024/02/07 01:30:07;;;;;;;55.47;10.00;;;7.80;99.90;;;;;;5086681;28;20541;-50
2024/02/07 01:32:32;;;;;;;37.15;8.30;;;7.80;99.90;;;;;;5087675;28;20036;-50
2024/02/07 01:34:58;;;;;;;52.58;9.50;;;7.80;99.90;;;;;;5086425;28;20427;-50
2024/02/07 01:37:23;;;;;;;59.13;10.20;;;7.80;99.90;;;;;;5087801;28;20032;-50
2024/02/07 01:39:49;;;;;;;46.38;9.27;;;7.80;99.90;;;;;;5087900;28;20042;-50
2024/02/07 01:42:15;;;;;;;40.42;8.63;;;7.80;99.90;;;;;;5087783;28;20598;-49
2024/02/07 01:44:40;;;;;;;42.95;8.55;;;7.80;99.90;;;;;;5087802;28;20032;-50
2024/02/07 01:47:12;;;;;;;39.60;9.10;;;7.80;99.90;;;;;;5069685;28;20025;-50
2024/02/07 01:49:49;;;;;;;36.33;8.65;;;7.80;99.90;;;;;;5087358;28;20052;-50
2024/02/07 01:52:17;;;;;;;36.10;8.63;;;7.70;99.90;;;;;;5086083;28;20039;-50
2024/02/07 01:54:42;;;;;;;37.60;9.20;;;7.70;99.90;;;;;;5085455;28;20036;-50
2024/02/07 01:57:08;;;;;;;46.05;8.57;;;7.70;99.90;;;;;;5086092;28;20020;-50
2024/02/07 01:59:35;;;;;;;44.42;9.85;;;7.70;99.90;;;;;;5069183;28;20090;-50
2024/02/07 02:02:01;;;;;;;43.33;8.60;;;7.70;99.90;;;;;;5086055;28;20063;-49
2024/02/07 02:04:27;;;;;;;39.72;8.88;;;7.70;99.90;;;;;;5069244;28;20021;-50
2024/02/07 02:06:53;;;;;;;41.95;8.77;;;7.70;99.90;;;;;;5086156;28;20056;-50
2024/02/07 02:09:19;;;;;;;33.10;8.05;;;7.70;99.90;;;;;;5087055;28;20465;-50
2024/02/07 02:11:44;;;;;;;39.80;8.60;;;7.70;99.90;;;;;;5085870;28;20029;-50
2024/02/07 02:14:10;;;;;;;33.33;8.10;;;7.70;99.90;;;;;;5069277;28;20028;-50
2024/02/07 02:16:37;;;;;;;34.42;8.65;;;7.60;99.90;;;;;;5086120;28;20493;-50
2024/02/07 02:19:02;;;;;;;45.88;8.07;;;7.60;99.90;;;;;;5086935;28;20046;-50
2024/02/07 02:21:30;;;;;;;30.55;8.23;;;7.60;99.90;;;;;;5086890;28;20032;-50
2024/02/07 02:24:33;;;;;;;40.40;7.93;;;7.60;99.90;;;;;;5068845;28;20387;-50
2024/02/07 02:27:01;;;;;;;38.80;8.80;;;7.50;99.90;;;;;;5087013;28;20029;-50
2024/02/07 02:29:36;;;;;;;30.30;6.90;;;7.50;99.90;;;;;;5085616;28;20016;-50
2024/02/07 02:32:02;;;;;;;32.22;7.13;;;7.50;99.90;;;;;;5086069;28;20035;-50
2024/02/07 02:34:28;;;;;;;33.28;7.22;;;7.50;99.90;;;;;;5085575;28;20036;-50
2024/02/07 02:36:54;;;;;;;37.33;8.45;;;7.50;99.90;;;;;;5086315;28;20542;-50
2024/02/07 02:39:19;;;;;;;33.33;8.48;;;7.50;99.90;;;;;;5085455;28;20028;-50
2024/02/07 02:41:45;;;;;;;43.25;8.05;;;7.50;99.90;;;;;;5086590;28;20028;-50
2024/02/07 02:44:11;;;;;;;35.53;7.53;;;7.50;99.90;;;;;;5081085;28;20024;-50
2024/02/07 02:46:37;;;;;;;31.55;7.03;;;7.50;99.90;;;;;;5066680;28;20029;-50
2024/02/07 02:49:03;;;;;;;38.05;7.82;;;7.50;99.90;;;;;;5066528;28;20033;-50
2024/02/07 02:51:29;;;;;;;31.10;7.68;;;7.50;99.90;;;;;;5065111;28;20029;-50
2024/02/07 02:53:54;;;;;;;35.33;7.40;;;7.50;99.90;;;;;;5048626;28;20036;-50
2024/02/07 02:56:20;;;;;;;22.27;7.35;;;7.50;99.90;;;;;;5065254;28;20120;-50
2024/02/07 02:58:46;;;;;;;25.52;7.32;;;7.50;99.90;;;;;;5066450;28;20116;-50
2024/02/07 03:01:11;;;;;;;30.13;6.68;;;7.40;99.90;;;;;;5048632;28;20029;-50
2024/02/07 03:03:37;;;;;;;32.20;7.57;;;7.40;99.90;;;;;;5065017;28;20041;-50
2024/02/07 03:06:07;;;;;;;32.15;7.25;;;7.40;99.90;;;;;;5065068;28;20090;-50
2024/02/07 03:08:53;;;;;;;31.45;7.70;;;7.40;99.90;;;;;;5065143;28;20102;-50
2024/02/07 03:11:20;;;;;;;26.60;7.15;;;7.40;99.90;;;;;;5050742;28;20025;-50
2024/02/07 03:13:46;;;;;;;17.92;6.45;;;7.40;99.90;;;;;;5066139;28;20453;-49
2024/02/07 03:16:12;;;;;;;27.77;6.95;;;7.40;99.90;;;;;;5066059;28;20123;-50
2024/02/07 03:18:38;;;;;;;32.67;7.15;;;7.30;99.90;;;;;;5066143;28;20159;-50
2024/02/07 03:21:08;;;;;;;25.65;7.25;;;7.40;99.90;;;;;;5066072;28;20044;-50
2024/02/07 03:23:34;;;;;;;29.58;6.60;;;7.30;99.90;;;;;;5064486;28;20033;-50
2024/02/07 03:26:00;;;;;;;19.05;6.18;;;7.30;99.90;;;;;;5065990;28;20031;-50
2024/02/07 03:28:27;;;;;;;22.25;7.32;;;7.30;99.90;;;;;;5064870;28;20025;-50
2024/02/07 03:30:52;;;;;;;26.05;7.32;;;7.30;99.90;;;;;;5065890;28;20028;-50
2024/02/07 03:33:19;;;;;;;28.98;6.65;;;7.30;99.90;;;;;;5066299;28;20029;-50
2024/02/07 03:35:45;;;;;;;25.67;7.13;;;7.30;99.90;;;;;;5048221;28;20033;-50
2024/02/07 03:38:10;;;;;;;22.55;6.65;;;7.30;99.90;;;;;;5065308;28;20029;-49
2024/02/07 03:40:36;;;;;;;25.95;6.60;;;7.30;99.90;;;;;;5064912;28;20033;-50
2024/02/07 03:43:03;;;;;;;25.48;6.57;;;7.30;99.90;;;;;;5066210;28;20069;-50
2024/02/07 03:45:32;;;;;;;15.88;6.38;;;7.20;99.90;;;;;;5065965;28;20021;-50
2024/02/07 03:47:57;;;;;;;20.45;5.90;;;7.20;99.90;;;;;;5064731;28;20048;-50
2024/02/07 03:50:25;;;;;;;24.90;7.32;;;7.20;99.90;;;;;;5047920;28;20032;-50
2024/02/07 03:52:50;;;;;;;26.92;6.55;;;7.20;99.90;;;;;;5064415;28;20381;-50
2024/02/07 03:55:16;;;;;;;27.23;6.47;;;7.20;99.90;;;;;;5047987;28;20026;-49
2024/02/07 03:57:44;;;;;;;25.63;6.78;;;7.20;99.90;;;;;;5065714;28;20499;-50
2024/02/07 04:00:16;;;;;;;26.15;6.50;;;7.20;99.90;;;;;;5065852;28;20025;-49
2024/02/07 04:02:46;;;;;;;13.80;6.20;;;7.20;99.90;;;;;;5064489;28;20476;-50
2024/02/07 04:05:11;;;;;;;21.08;6.00;;;7.20;99.90;;;;;;5064464;28;20033;-50
2024/02/07 04:07:37;;;;;;;19.42;6.10;;;7.20;99.90;;;;;;5047535;28;20025;-50
2024/02/07 04:10:04;;;;;;;20.08;6.20;;;7.20;99.90;;;;;;5064343;28;20028;-50
2024/02/07 05:17:33;;;;;;;11.88;5.30;;;7.00;99.90;;;;;;5068091;28;20021;-50
2024/02/07 05:19:59;;;;;;;13.45;5.25;;;7.00;99.90;;;;;;5066833;28;20037;-49
2024/02/07 05:22:24;;;;;;;16.88;5.78;;;7.00;99.90;;;;;;5049891;28;20071;-50
2024/02/07 05:24:51;;;;;;;13.23;5.50;;;7.00;99.90;;;;;;5067764;28;20045;-49
2024/02/07 05:27:17;;;;;;;16.55;5.63;;;7.00;99.90;;;;;;5066637;28;20014;-50
2024/02/07 05:29:43;;;;;;;19.48;5.95;;;7.00;99.90;;;;;;5067940;28;20055;-50
2024/02/07 05:32:08;;;;;;;14.65;5.38;;;7.00;99.90;;;;;;5066203;28;20021;-50
2024/02/07 05:34:34;;;;;;;18.17;5.25;;;7.00;99.90;;;;;;5066614;28;20025;-50
2024/02/07 05:37:03;;;;;;;15.70;4.85;;;7.00;99.90;;;;;;5066476;28;20037;-50
2024/02/07 05:39:35;;;;;;;16.77;5.22;;;7.10;99.90;;;;;;5066537;28;20033;-50
2024/02/07 05:42:00;;;;;;;13.07;5.47;;;7.00;99.90;;;;;;5066626;28;20021;-50
2024/02/07 05:44:27;;;;;;;14.27;4.97;;;7.00;99.90;;;;;;5066371;28;20029;-50
2024/02/07 05:46:53;;;;;;;15.68;4.80;;;7.00;99.90;;;;;;5067578;28;20025;-50
2024/02/07 05:49:19;;;;;;;12.35;5.03;;;7.00;99.90;;;;;;5067509;28;20489;-50
2024/02/07 05:51:57;;;;;;;23.17;5.70;;;7.10;99.90;;;;;;5067447;28;20075;-50
2024/02/07 05:54:24;;;;;;;15.10;5.25;;;7.00;99.90;;;;;;5066197;28;20044;-50
2024/02/07 05:56:50;;;;;;;15.23;5.03;;;7.00;99.90;;;;;;5067226;28;20029;-50
2024/02/07 05:59:17;;;;;;;22.10;5.90;;;7.00;99.90;;;;;;5067377;28;20025;-50
2024/02/07 06:01:44;;;;;;;20.60;5.95;;;7.00;99.90;;;;;;5067277;28;20049;-50
2024/02/07 06:04:09;;;;;;;25.60;6.05;;;7.00;99.90;;;;;;5065797;28;20036;-50
2024/02/07 06:06:36;;;;;;;14.68;5.25;;;7.10;99.90;;;;;;5067142;28;20104;-50
2024/02/07 06:09:01;;;;;;;18.15;5.60;;;7.10;99.90;;;;;;5065837;28;20576;-50
2024/02/07 06:11:31;;;;;;;20.55;5.45;;;7.00;99.90;;;;;;5067077;28;20021;-50
2024/02/07 06:13:59;;;;;;;17.23;5.82;;;7.10;99.90;;;;;;5065758;28;20037;-50
2024/02/07 06:16:27;;;;;;;18.02;6.00;;;7.00;99.90;;;;;;5065635;28;20044;-50
2024/02/07 06:18:53;;;;;;;21.50;5.90;;;7.00;99.90;;;;;;5049466;28;20393;-50
2024/02/07 06:21:19;;;;;;;24.83;6.32;;;7.10;99.90;;;;;;5065580;28;20021;-50
2024/02/07 06:23:47;;;;;;;17.23;5.97;;;7.00;99.90;;;;;;5065478;28;20041;-50
2024/02/07 06:26:12;;;;;;;43.83;7.90;;;7.10;99.90;;;;;;5066681;28;20028;-50
2024/02/07 06:28:38;;;;;;;29.25;7.15;;;7.00;99.90;;;;;;5065541;28;20025;-50
2024/02/07 06:31:03;;;;;;;32.03;7.30;;;7.00;99.90;;;;;;5066764;28;20031;-50
2024/02/07 06:33:29;;;;;;;51.38;8.93;;;7.10;99.90;;;;;;5065318;28;20044;-50
2024/02/07 06:35:54;;;;;;;32.83;6.45;;;7.10;99.90;;;;;;5065305;28;20029;-50
2024/02/07 06:38:20;;;;;;;24.98;6.78;;;7.10;99.90;;;;;;5065182;28;20080;-50
2024/02/07 06:40:46;;;;;;;37.78;6.72;;;7.10;99.90;;;;;;5066692;28;20021;-49
2024/02/07 06:43:11;;;;;;;27.17;7.18;;;7.10;99.90;;;;;;5048466;28;20517;-50
2024/02/07 06:45:37;;;;;;;21.42;7.10;;;7.10;99.90;;;;;;5065790;28;20021;-50
2024/02/07 06:48:03;;;;;;;38.28;6.85;;;7.10;99.90;;;;;;5065041;28;20029;-50
2024/02/07 06:50:28;;;;;;;34.22;8.05;;;7.10;99.90;;;;;;5060785;28;20037;-50
2024/02/07 06:52:54;;;;;;;27.65;7.55;;;7.10;99.90;;;;;;5044604;28;20032;-50
2024/02/07 06:55:19;;;;;;;123.53;15.10;;;7.10;99.90;;;;;;5044208;28;20017;-50
2024/02/07 06:57:45;;;;;;;97.82;13.98;;;7.10;99.90;;;;;;5046153;28;20527;-50
2024/02/07 07:00:12;;;;;;;90.38;12.98;;;7.10;99.90;;;;;;5060444;28;20024;-50
2024/02/07 07:02:37;;;;;;;58.92;10.25;;;7.10;99.90;;;;;;5065861;28;20025;-50
2024/02/07 07:05:03;;;;;;;36.80;8.38;;;7.10;99.90;;;;;;5066062;28;20551;-50
2024/02/07 07:07:29;;;;;;;39.17;9.35;;;7.10;99.90;;;;;;5065756;28;20028;-50
2024/02/07 07:09:54;;;;;;;40.80;8.65;;;7.10;99.90;;;;;;5065007;28;20028;-50
2024/02/07 07:12:20;;;;;;;32.13;8.38;;;7.10;99.90;;;;;;5064685;28;20017;-50
2024/02/07 07:14:46;;;;;;;41.92;8.23;;;7.20;99.90;;;;;;5066099;28;20108;-50
2024/02/07 07:17:11;;;;;;;47.72;8.88;;;7.10;99.90;;;;;;5048271;28;20033;-50
2024/02/07 07:19:37;;;;;;;36.85;8.13;;;7.20;99.90;;;;;;5066010;28;20048;-50
2024/02/07 07:22:02;;;;;;;48.13;8.35;;;7.10;99.90;;;;;;5064752;28;20027;-50
2024/02/07 07:24:28;;;;;;;49.42;9.05;;;7.10;99.90;;;;;;5062028;28;20064;-50
2024/02/07 07:26:53;;;;;;;43.63;8.07;;;7.20;99.90;;;;;;5073775;28;20538;-50
2024/02/07 07:29:19;;;;;;;36.38;8.20;;;7.20;99.90;;;;;;5065087;28;20029;-50
2024/02/07 07:31:45;;;;;;;40.80;8.65;;;7.20;99.90;;;;;;5045795;28;20021;-50
2024/02/07 07:34:10;;;;;;;60.72;10.02;;;7.20;99.90;;;;;;5065356;28;20071;-50
2024/02/07 07:36:37;;;;;;;52.45;11.00;;;7.20;99.90;;;;;;5064650;28;20068;-50
2024/02/07 07:39:02;;;;;;;36.75;7.82;;;7.20;99.90;;;;;;5064657;28;20040;-50
2024/02/07 07:41:28;;;;;;;36.40;8.98;;;7.20;99.90;;;;;;5066003;28;20028;-50
2024/02/07 07:43:54;;;;;;;29.50;7.60;;;7.20;99.90;;;;;;5064377;28;20045;-50
2024/02/07 07:46:19;;;;;;;35.75;6.80;;;7.20;99.90;;;;;;5065980;28;20017;-50
2024/02/07 07:48:45;;;;;;;22.08;7.15;;;7.20;99.90;;;;;;5062014;28;20056;-50
2024/02/07 07:51:12;;;;;;;34.53;7.30;;;7.20;99.90;;;;;;5064508;28;20025;-50
2024/02/07 07:53:38;;;;;;;28.20;6.85;;;7.30;99.90;;;;;;5064239;28;20057;-50
2024/02/07 07:56:05;;;;;;;24.23;5.93;;;7.30;99.90;;;;;;5064049;28;20032;-50
2024/02/07 07:58:37;;;;;;;26.08;6.13;;;7.30;99.90;;;;;;5068159;28;20047;-50
2024/02/07 08:01:04;;;;;;;24.05;6.72;;;7.30;99.90;;;;;;5068109;28;20061;-50
2024/02/07 08:03:29;;;;;;;22.30;6.38;;;7.30;99.90;;;;;;5086184;28;20032;-50
2024/02/07 08:05:55;;;;;;;21.10;6.57;;;7.30;99.90;;;;;;5049469;28;20044;-50
2024/02/07 08:08:20;;;;;;;25.67;6.47;;;7.30;99.90;;;;;;5060100;28;20029;-50
2024/02/07 08:10:46;;;;;;;24.00;6.47;;;7.30;99.90;;;;;;5076391;28;20028;-50
2024/02/07 08:13:12;;;;;;;25.65;5.78;;;7.40;99.90;;;;;;5069352;28;20142;-50
2024/02/07 08:15:38;;;;;;;25.80;6.45;;;7.40;99.90;;;;;;5088920;28;20084;-50
2024/02/07 08:18:03;;;;;;;23.98;5.10;;;7.40;99.90;;;;;;5070643;28;20039;-50
2024/02/07 08:20:29;;;;;;;22.25;5.97;;;7.40;99.90;;;;;;5087717;28;20051;-50
2024/02/07 08:22:55;;;;;;;28.23;7.00;;;7.40;99.90;;;;;;5072871;28;20032;-50
2024/02/07 08:25:21;;;;;;;20.73;6.68;;;7.40;99.90;;;;;;5068908;28;20025;-50
2024/02/07 08:27:47;;;;;;;25.38;6.43;;;7.40;99.90;;;;;;5067534;28;20444;-50
2024/02/07 08:30:13;;;;;;;21.45;5.97;;;7.40;99.90;;;;;;5068830;28;20025;-50
2024/02/07 08:32:39;;;;;;;31.60;6.88;;;7.40;99.90;;;;;;5066104;28;20032;-50
2024/02/07 08:35:05;;;;;;;18.27;5.63;;;7.40;99.90;;;;;;5067650;28;20028;-50
2024/02/07 08:37:30;;;;;;;33.97;7.22;;;7.50;99.90;;;;;;5067207;28;20039;-50
2024/02/07 08:39:56;;;;;;;39.10;6.80;;;7.50;99.90;;;;;;5048897;28;20021;-50
2024/02/07 08:42:24;;;;;;;29.70;7.25;;;7.50;99.90;;;;;;5066724;28;20033;-50
2024/02/07 08:44:50;;;;;;;27.13;7.00;;;7.50;99.90;;;;;;5067128;28;20071;-49
2024/02/07 08:47:15;;;;;;;31.02;5.97;;;7.50;99.90;;;;;;5069368;28;20021;-50
2024/02/07 08:49:41;;;;;;;30.25;6.80;;;7.50;99.90;;;;;;5075171;28;20088;-49
2024/02/07 08:52:06;;;;;;;40.45;7.15;;;7.50;99.90;;;;;;5065098;28;20025;-50
2024/02/07 08:54:33;;;;;;;29.60;6.93;;;7.50;99.90;;;;;;5067156;28;20041;-51
2024/02/07 08:56:59;;;;;;;29.77;6.55;;;7.60;99.90;;;;;;5066807;28;20077;-49
2024/02/07 08:59:24;;;;;;;32.70;5.78;;;7.60;99.90;;;;;;5063454;28;20052;-50
2024/02/07 09:01:50;;;;;;;32.38;6.07;;;7.60;99.90;;;;;;5066496;28;20051;-50
2024/02/07 09:04:16;;;;;;;28.38;5.65;;;7.70;99.90;;;;;;5065944;28;20088;-50
2024/02/07 09:06:41;;;;;;;27.80;5.78;;;7.70;99.90;;;;;;5069308;28;20389;-49
2024/02/07 09:09:07;;;;;;;35.88;7.60;;;7.70;99.90;;;;;;5069433;28;20032;-50
2024/02/07 09:11:32;;;;;;;158.73;17.88;;;7.70;99.90;;;;;;5068229;28;20021;-49
2024/02/07 09:13:58;;;;;;;135.85;12.60;;;7.80;99.90;;;;;;5067466;28;20040;-50
2024/02/07 09:16:24;;;;;;;73.55;10.88;;;7.80;99.90;;;;;;5066578;28;20037;-50
2024/02/07 09:18:52;;;;;;;120.47;15.13;;;7.80;99.90;;;;;;5069978;28;20062;-50
2024/02/07 09:21:17;;;;;;;85.65;11.30;;;7.90;99.90;;;;;;5067729;28;20021;-50
2024/02/07 09:23:45;;;;;;;129.00;14.63;;;7.90;99.90;;;;;;5049404;28;20036;-50
2024/02/07 09:26:11;;;;;;;105.18;11.95;;;7.90;99.90;;;;;;5071999;28;20028;-50
2024/02/07 09:28:36;;;;;;;61.33;9.82;;;7.90;99.90;;;;;;5073310;28;20028;-50
2024/02/07 09:31:02;;;;;;;67.80;9.73;;;8.00;99.90;;;;;;5067068;28;20031;-50
2024/02/07 09:33:27;;;;;;;52.03;9.32;;;8.00;99.90;;;;;;5074464;28;20029;-49
2024/02/07 09:35:53;;;;;;;53.13;8.02;;;8.00;99.90;;;;;;5063417;28;20029;-50
2024/02/07 09:38:21;;;;;;;53.63;7.35;;;8.10;99.90;;;;;;5046373;28;20037;-50
2024/02/07 09:40:49;;;;;;;172.52;17.88;;;8.10;99.90;;;;;;5063929;28;20038;-50
2024/02/07 09:43:14;;;;;;;69.55;9.27;;;8.10;99.90;;;;;;5075182;28;20033;-50
2024/02/07 09:45:41;;;;;;;54.85;8.27;;;8.10;99.90;;;;;;5047733;28;20036;-50
2024/02/07 09:48:35;;;;;;;83.07;10.85;;;8.20;99.90;;;;;;5065344;28;20037;-50
2024/02/07 09:51:02;;;;;;;34.70;6.38;;;8.20;99.90;;;;;;5074481;28;20033;-50
2024/02/07 09:53:27;;;;;;;22.02;5.53;;;8.20;99.90;;;;;;5063426;28;20060;-49
2024/02/07 09:55:53;;;;;;;32.03;6.05;;;8.30;99.90;;;;;;5076322;28;20373;-50
2024/02/07 09:58:25;;;;;;;23.25;5.20;;;8.30;99.80;;;;;;5066802;28;20029;-49
2024/02/07 10:00:51;;;;;;;31.85;5.97;;;8.30;99.70;;;;;;5076489;28;20547;-49
2024/02/07 10:03:23;;;;;;;34.50;6.85;;;8.40;99.60;;;;;;5065069;28;20050;-49
2024/02/07 10:05:50;;;;;;;34.70;6.88;;;8.40;99.80;;;;;;5065247;28;20016;-49
2024/02/07 10:08:17;;;;;;;30.05;6.80;;;8.40;99.50;;;;;;5066297;28;20029;-49
2024/02/07 10:10:47;;;;;;;26.67;6.13;;;8.40;99.50;;;;;;5048473;28;20114;-49
2024/02/07 10:13:16;;;;;;;20.98;6.35;;;8.40;99.50;;;;;;5067525;28;20029;-56
2024/02/07 10:15:43;;;;;;;27.67;6.28;;;8.50;99.50;;;;;;5066267;28;20579;-57
2024/02/07 10:18:09;;;;;;;26.77;5.88;;;8.50;99.50;;;;;;5067573;28;20042;-58
2024/02/07 10:20:34;;;;;;;29.70;6.18;;;8.60;99.50;;;;;;5066962;28;20060;-58
2024/02/07 10:23:00;;;;;;;36.60;7.28;;;8.60;99.40;;;;;;5069683;28;20028;-58
2024/02/07 10:25:25;;;;;;;31.70;5.97;;;8.60;99.40;;;;;;5064225;28;20067;-58
2024/02/07 10:28:00;;;;;;;26.17;5.88;;;8.60;99.40;;;;;;5074400;28;20467;-58
2024/02/07 10:30:26;;;;;;;221.45;19.30;;;8.60;99.30;;;;;;5060426;28;20024;-58
2024/02/07 10:32:51;;;;;;;42.55;6.97;;;8.60;99.40;;;;;;5055399;28;20079;-58
2024/02/07 10:35:17;;;;;;;33.75;6.78;;;8.70;99.50;;;;;;5056693;28;20377;-58
2024/02/07 10:37:43;;;;;;;41.35;7.28;;;8.70;99.40;;;;;;5064444;28;20048;-58
2024/02/07 10:40:10;;;;;;;44.60;8.27;;;8.70;99.40;;;;;;5069661;28;20104;-57
2024/02/07 10:42:36;;;;;;;78.47;9.95;;;8.80;99.50;;;;;;5066444;28;20032;-58
2024/02/07 10:45:13;;;;;;;57.53;7.85;;;8.80;99.60;;;;;;5064538;28;20037;-58
2024/02/07 10:47:39;;;;;;;55.72;8.88;;;8.80;99.60;;;;;;5065244;28;20397;-58
2024/02/07 10:50:05;;;;;;;84.85;12.40;;;8.90;99.50;;;;;;5053542;28;20029;-58
2024/02/07 10:52:32;;;;;;;92.63;11.48;;;8.90;99.40;;;;;;5062644;28;20021;-58
2024/02/07 10:54:57;;;;;;;42.38;7.60;;;9.00;99.30;;;;;;5065095;28;20028;-58
2024/02/07 10:57:41;;;;;;;35.83;6.78;;;9.00;99.10;;;;;;5075086;28;20025;-58
2024/02/07 11:00:07;;;;;;;38.50;7.90;;;9.00;98.90;;;;;;5027587;28;20051;-58
2024/02/07 11:02:33;;;;;;;65.47;7.78;;;9.00;98.80;;;;;;5051285;28;20448;-58
2024/02/07 11:04:59;;;;;;;37.38;6.57;;;9.00;98.70;;;;;;5064468;28;20029;-58
2024/02/07 11:07:25;;;;;;;60.42;7.72;;;9.10;98.70;;;;;;5052622;28;20043;-58
2024/02/07 11:09:50;;;;;;;27.30;6.38;;;9.10;98.70;;;;;;5070812;28;20052;-58
2024/02/07 11:12:16;;;;;;;369.35;37.35;;;9.10;98.50;;;;;;5063821;28;20433;-58
2024/02/07 11:14:47;;;;;;;101.43;10.85;;;9.10;98.50;;;;;;5063986;28;20037;-50
2024/02/07 11:17:14;;;;;;;63.15;7.90;;;9.20;98.60;;;;;;5046009;28;20134;-50
2024/02/07 11:19:40;;;;;;;41.10;8.52;;;9.20;98.50;;;;;;5063364;28;20033;-49
2024/02/07 11:22:06;;;;;;;51.05;7.85;;;9.20;98.50;;;;;;5046507;28;20025;-50
2024/02/07 11:24:31;;;;;;;36.78;6.88;;;9.30;98.50;;;;;;5063730;28;20044;-50
2024/02/07 11:26:57;;;;;;;45.40;6.50;;;9.30;98.50;;;;;;5047577;28;20021;-50
2024/02/07 11:29:25;;;;;;;284.95;25.30;;;9.30;98.40;;;;;;5064425;28;20053;-50
2024/02/07 11:31:54;;;;;;;64.80;9.68;;;9.40;98.50;;;;;;5051054;28;20115;-50
2024/02/07 11:34:20;;;;;;;77.80;10.55;;;9.40;98.50;;;;;;5052158;28;20029;-50
2024/02/07 11:36:55;;;;;;;114.05;12.20;;;9.40;98.50;;;;;;5068619;28;20060;-50
2024/02/07 11:39:23;;;;;;;102.65;10.80;;;9.50;98.60;;;;;;5068618;28;20045;-50
2024/02/07 11:41:49;;;;;;;143.45;16.05;;;9.50;98.60;;;;;;5069984;28;20112;-50
2024/02/07 11:44:17;;;;;;;35.85;6.22;;;9.50;98.60;;;;;;5068512;28;20066;-50
2024/02/07 11:46:54;;;;;;;27.65;5.55;;;9.50;98.50;;;;;;5069872;28;20025;-50
2024/02/07 11:49:24;;;;;;;70.35;9.30;;;9.50;98.00;;;;;;5068637;28;20025;-50
2024/02/07 11:51:59;;;;;;;159.68;16.77;;;9.60;97.80;;;;;;5069653;28;20040;-50
2024/02/07 11:54:30;;;;;;;99.18;12.18;;;9.60;98.10;;;;;;5068134;28;20123;-50
2024/02/07 11:56:58;;;;;;;209.25;19.27;;;9.60;98.20;;;;;;5052154;28;20037;-50
2024/02/07 11:59:23;;;;;;;44.85;8.40;;;9.70;98.20;;;;;;5069594;28;20029;-50
2024/02/07 12:01:49;;;;;;;92.45;9.60;;;9.70;98.10;;;;;;5068240;28;20389;-50
2024/02/07 12:04:16;;;;;;;58.83;8.27;;;9.70;97.90;;;;;;5068149;28;20056;-50
2024/02/07 12:06:43;;;;;;;43.92;6.13;;;9.70;97.90;;;;;;5068009;28;20044;-50
2024/02/07 12:09:08;;;;;;;22.80;4.47;;;9.80;97.70;;;;;;5067781;28;20033;-49
2024/02/07 12:11:34;;;;;;;27.73;5.25;;;9.80;97.60;;;;;;5051661;28;20021;-50
2024/02/07 12:14:00;;;;;;;23.13;4.78;;;9.90;97.40;;;;;;5067871;28;20489;-50
2024/02/07 12:16:25;;;;;;;27.48;4.90;;;9.90;97.50;;;;;;5067954;28;20055;-50
2024/02/07 12:18:51;;;;;;;28.08;5.03;;;9.90;97.30;;;;;;5051159;28;20033;-50
2024/02/07 12:21:16;;;;;;;16.92;4.28;;;9.90;97.40;;;;;;5069210;28;20052;-50
2024/02/07 12:23:42;;;;;;;23.02;4.82;;;9.90;97.30;;;;;;5053222;28;20494;-50
2024/02/07 12:26:07;;;;;;;26.80;4.72;;;9.90;97.30;;;;;;5045638;28;20032;-50
2024/02/07 12:28:33;;;;;;;16.55;3.80;;;10.00;97.20;;;;;;5060619;28;20025;-50
2024/02/07 12:30:59;;;;;;;14.88;4.20;;;10.00;97.10;;;;;;5049637;28;20112;-50
2024/02/07 12:33:27;;;;;;;22.15;4.15;;;10.00;97.00;;;;;;5048512;28;20089;-50
2024/02/07 12:35:57;;;;;;;20.77;4.65;;;10.00;96.80;;;;;;5056401;28;20072;-50
2024/02/07 12:38:23;;;;;;;24.13;4.38;;;10.10;96.70;;;;;;5069516;28;20112;-49
2024/02/07 12:40:50;;;;;;;29.02;4.72;;;10.10;96.50;;;;;;5062054;28;20033;-49
2024/02/07 12:43:25;;;;;;;38.10;7.03;;;10.10;96.40;;;;;;5055055;28;20244;-49
2024/02/07 12:45:54;;;;;;;30.08;5.70;;;10.20;96.40;;;;;;5045842;28;20044;-51
2024/02/07 12:48:24;;;;;;;100.55;12.52;;;10.20;96.30;;;;;;5028361;28;20030;-50
2024/02/07 12:50:50;;;;;;;77.20;10.55;;;10.20;96.20;;;;;;5054761;28;20031;-50
2024/02/07 12:53:17;;;;;;;55.42;7.65;;;10.30;96.20;;;;;;5049045;28;20093;-50
2024/02/07 12:55:46;;;;;;;69.18;9.20;;;10.30;96.20;;;;;;5051481;28;20026;-49
2024/02/07 12:58:11;;;;;;;60.22;9.05;;;10.40;96.20;;;;;;5033703;28;20041;-49
2024/02/07 13:00:37;;;;;;;70.13;10.65;;;10.40;96.20;;;;;;5052558;28;20025;-50
2024/02/07 13:03:03;;;;;;;71.20;9.95;;;10.40;96.10;;;;;;5047672;28;20409;-50
2024/02/07 13:05:28;;;;;;;72.13;9.70;;;10.50;96.10;;;;;;5048981;28;20035;-49
2024/02/07 13:07:54;;;;;;;77.88;11.93;;;10.50;96.10;;;;;;5053194;28;20048;-50
2024/02/07 13:10:19;;;;;;;79.22;11.73;;;10.50;96.10;;;;;;5059409;28;20115;-49
2024/02/07 13:12:45;;;;;;;85.65;11.85;;;10.50;96.10;;;;;;5041232;28;20047;-50
2024/02/07 13:15:18;;;;;;;70.15;10.10;;;10.60;96.20;;;;;;5050070;28;20018;-50
2024/02/07 13:17:44;;;;;;;92.50;11.70;;;10.60;96.00;;;;;;5053655;28;20104;-50
2024/02/07 13:20:10;;;;;;;81.88;11.80;;;10.60;95.90;;;;;;5053765;28;20045;-50
2024/02/07 13:22:36;;;;;;;84.65;10.88;;;10.70;95.90;;;;;;5045921;28;20041;-50
2024/02/07 13:25:13;;;;;;;60.72;8.52;;;10.70;95.90;;;;;;5051647;28;20031;-50
2024/02/07 13:27:38;;;;;;;67.38;9.10;;;10.70;95.70;;;;;;5056435;28;20034;-50
2024/02/07 13:30:05;;;;;;;68.55;10.20;;;10.70;95.50;;;;;;5050485;28;20051;-50
2024/02/07 13:32:31;;;;;;;71.70;10.13;;;10.80;95.60;;;;;;5048308;28;20037;-50
2024/02/07 13:34:56;;;;;;;67.05;10.18;;;10.80;95.50;;;;;;5042284;28;20493;-49
2024/02/07 13:37:22;;;;;;;37.70;5.78;;;10.80;95.50;;;;;;5054031;28;20044;-50
2024/02/07 13:39:48;;;;;;;88.72;11.38;;;10.90;95.30;;;;;;5056010;28;20040;-50
2024/02/07 13:42:13;;;;;;;86.65;11.00;;;10.80;95.10;;;;;;5050955;28;20029;-50
2024/02/07 13:44:39;;;;;;;76.57;9.20;;;10.80;95.20;;;;;;5047110;28;20033;-50